Time;durP1;ratioP1;P1;durP2;ratioP2;P2;SDS_P1;SDS_P2;PMS_P1;PMS_P2;Temp;Humidity;BMP_temperature;BMP_pressure;BME280_temperature;BME280_humidity;BME280_pressure;Samples;Min_cycle;Max_cycle;Signal;HPM_P1;HPM_P2
2021/08/09 00:00:02;;;;;;;3.20;2.27;;;15.70;79.20;;;;;;4921452;29;20463;-50
2021/08/09 00:02:29;;;;;;;2.40;1.80;;;15.70;79.20;;;;;;4929578;29;21008;-50
2021/08/09 00:04:56;;;;;;;2.90;2.00;;;15.70;79.30;;;;;;4929784;29;20467;-50
2021/08/09 00:07:23;;;;;;;3.53;1.77;;;15.60;79.40;;;;;;4919807;29;20897;-50
2021/08/09 00:09:49;;;;;;;2.23;1.87;;;15.60;79.40;;;;;;4933533;29;20463;-50
2021/08/09 00:12:16;;;;;;;3.27;2.17;;;15.60;79.50;;;;;;4935078;29;20797;-50
2021/08/09 00:14:43;;;;;;;3.10;2.07;;;15.50;79.70;;;;;;4921679;29;20459;-50
2021/08/09 00:17:09;;;;;;;2.03;1.90;;;15.50;79.80;;;;;;4931563;29;20845;-50
2021/08/09 00:19:37;;;;;;;3.60;1.90;;;15.50;79.80;;;;;;4920062;29;21341;-50
2021/08/09 00:22:06;;;;;;;4.33;2.40;;;15.50;79.80;;;;;;4927509;29;20483;-50
2021/08/09 00:24:32;;;;;;;4.10;2.00;;;15.50;80.00;;;;;;4933206;29;20448;-50
2021/08/09 00:26:59;;;;;;;2.27;2.10;;;15.50;80.20;;;;;;4931946;29;20460;-50
2021/08/09 00:29:26;;;;;;;2.73;2.00;;;15.50;80.20;;;;;;4928279;29;20467;-50
2021/08/09 00:31:53;;;;;;;2.07;1.87;;;15.40;80.30;;;;;;4917064;29;20475;-50
2021/08/09 00:34:19;;;;;;;4.00;2.40;;;15.40;80.50;;;;;;4928546;29;20464;-50
2021/08/09 00:36:47;;;;;;;2.53;2.33;;;15.40;80.50;;;;;;4929122;29;20464;-50
2021/08/09 00:39:13;;;;;;;3.50;2.20;;;15.40;80.60;;;;;;4931782;29;20463;-50
2021/08/09 00:41:43;;;;;;;3.70;2.93;;;15.40;80.70;;;;;;4930963;29;20550;-50
2021/08/09 00:44:09;;;;;;;2.47;2.20;;;15.40;80.80;;;;;;4930769;29;20551;-50
2021/08/09 00:46:36;;;;;;;2.60;2.37;;;15.30;80.90;;;;;;4934218;29;20452;-50
2021/08/09 00:49:03;;;;;;;3.37;2.77;;;15.30;81.00;;;;;;4904169;29;20543;-50
2021/08/09 00:51:30;;;;;;;3.53;2.50;;;15.30;81.00;;;;;;4930243;29;21024;-50
2021/08/09 00:53:57;;;;;;;2.90;2.33;;;15.30;81.10;;;;;;4928442;29;20866;-50
2021/08/09 00:56:24;;;;;;;2.77;2.57;;;15.30;81.10;;;;;;4927231;29;20457;-50
2021/08/09 00:58:53;;;;;;;3.00;2.50;;;15.30;81.20;;;;;;4930794;29;20463;-50
2021/08/09 01:01:20;;;;;;;2.77;2.00;;;15.20;81.30;;;;;;4911101;29;21008;-50
2021/08/09 01:03:47;;;;;;;2.40;2.20;;;15.20;81.40;;;;;;4931660;29;20511;-50
2021/08/09 01:06:15;;;;;;;2.60;2.17;;;15.20;81.50;;;;;;4933047;29;20555;-50
2021/08/09 01:09:00;;;;;;;3.43;2.80;;;15.20;81.60;;;;;;4932137;29;20487;-50
2021/08/09 01:11:48;;;;;;;3.80;2.37;;;15.20;81.70;;;;;;4930711;29;20941;-50
2021/08/09 01:14:51;;;;;;;3.83;2.03;;;15.20;81.70;;;;;;4928688;29;21218;-50
2021/08/09 01:17:21;;;;;;;3.27;2.50;;;15.10;81.80;;;;;;4930098;29;20465;-50
2021/08/09 01:20:30;;;;;;;3.40;2.47;;;15.10;81.80;;;;;;4915435;29;20849;-50
2021/08/09 01:22:57;;;;;;;3.13;2.20;;;15.10;81.90;;;;;;4855004;29;20989;-50
2021/08/09 01:25:35;;;;;;;4.37;3.10;;;15.10;81.90;;;;;;4917114;29;20466;-50
2021/08/09 01:28:03;;;;;;;3.10;2.40;;;15.10;82.00;;;;;;4915088;29;20989;-50
2021/08/09 01:30:31;;;;;;;2.80;2.27;;;15.10;81.80;;;;;;4931195;29;20479;-50
2021/08/09 01:32:58;;;;;;;3.60;2.10;;;15.10;81.80;;;;;;4932238;29;20504;-49
2021/08/09 01:35:27;;;;;;;2.60;1.90;;;15.10;81.80;;;;;;4932949;29;21033;-50
2021/08/09 01:37:56;;;;;;;2.90;2.13;;;15.10;81.70;;;;;;4931289;29;20539;-50
2021/08/09 01:40:25;;;;;;;3.40;2.90;;;15.10;81.50;;;;;;4913835;29;20471;-50
2021/08/09 01:42:52;;;;;;;2.97;2.20;;;15.10;81.50;;;;;;4930499;29;20468;-50
2021/08/09 01:45:20;;;;;;;3.00;1.80;;;15.00;81.50;;;;;;4929683;29;20468;-50
2021/08/09 01:47:48;;;;;;;2.30;1.80;;;15.00;81.50;;;;;;4929667;29;20571;-50
2021/08/09 01:50:16;;;;;;;2.37;2.03;;;15.00;81.40;;;;;;4927313;29;20498;-50
2021/08/09 01:52:44;;;;;;;3.10;2.07;;;15.00;81.40;;;;;;4931754;29;20543;-50
2021/08/09 01:55:13;;;;;;;2.27;2.07;;;14.90;81.20;;;;;;4929229;29;20467;-50
2021/08/09 01:57:40;;;;;;;3.70;1.97;;;14.90;81.10;;;;;;4931642;29;20491;-50
2021/08/09 02:00:10;;;;;;;3.57;2.10;;;14.80;81.10;;;;;;4932303;29;20472;-50
2021/08/09 02:02:37;;;;;;;5.03;2.13;;;14.80;81.00;;;;;;4931964;29;20490;-50
2021/08/09 02:05:12;;;;;;;3.00;1.80;;;14.80;80.90;;;;;;4931616;29;20572;-50
2021/08/09 02:07:45;;;;;;;2.37;2.00;;;14.70;80.90;;;;;;4931251;29;20534;-50
2021/08/09 02:10:15;;;;;;;2.20;2.00;;;14.70;81.00;;;;;;4927296;29;20457;-50
2021/08/09 02:13:00;;;;;;;2.27;2.07;;;14.60;81.10;;;;;;4930554;29;20466;-50
2021/08/09 02:15:38;;;;;;;2.93;2.00;;;14.60;81.20;;;;;;4931017;29;20487;-50
2021/08/09 02:18:24;;;;;;;2.43;1.53;;;14.60;81.20;;;;;;4915434;29;20482;-50
2021/08/09 02:20:57;;;;;;;4.20;1.80;;;14.60;81.30;;;;;;4933296;29;20463;-50
2021/08/09 02:23:31;;;;;;;3.03;2.20;;;14.60;81.40;;;;;;4931088;29;20471;-50
2021/08/09 02:25:58;;;;;;;2.80;2.00;;;14.60;81.40;;;;;;4928552;29;20464;-50
2021/08/09 02:28:28;;;;;;;3.57;2.00;;;14.60;81.50;;;;;;4929148;29;21039;-50
2021/08/09 02:30:59;;;;;;;3.90;2.30;;;14.50;81.50;;;;;;4911717;29;20458;-50
2021/08/09 02:33:28;;;;;;;2.93;2.13;;;14.50;81.50;;;;;;4932825;29;20452;-50
2021/08/09 02:35:58;;;;;;;2.37;1.70;;;14.50;81.50;;;;;;4929095;29;20452;-50
2021/08/09 02:38:26;;;;;;;2.23;2.03;;;14.50;81.60;;;;;;4930721;29;20495;-50
2021/08/09 02:40:54;;;;;;;2.10;1.90;;;14.50;81.70;;;;;;4928331;29;20946;-50
2021/08/09 02:43:21;;;;;;;3.73;2.47;;;14.40;81.80;;;;;;4930522;29;20460;-50
2021/08/09 02:45:49;;;;;;;3.13;2.40;;;14.40;81.90;;;;;;4931296;29;20458;-50
2021/08/09 02:48:17;;;;;;;2.80;2.20;;;14.40;82.10;;;;;;4929952;29;20497;-50
2021/08/09 02:50:49;;;;;;;2.43;2.23;;;14.40;82.20;;;;;;4912959;29;20526;-50
2021/08/09 02:53:18;;;;;;;3.10;2.57;;;14.40;82.30;;;;;;4914768;29;20784;-50
2021/08/09 02:55:49;;;;;;;3.00;2.60;;;14.50;82.20;;;;;;4934873;29;20466;-51
2021/08/09 02:58:19;;;;;;;3.67;2.47;;;14.40;82.20;;;;;;4933826;29;20460;-51
2021/08/09 03:00:46;;;;;;;2.87;2.40;;;14.40;82.20;;;;;;4934703;29;20523;-51
2021/08/09 03:03:13;;;;;;;5.80;2.93;;;14.40;82.20;;;;;;4933226;29;20503;-51
2021/08/09 03:05:40;;;;;;;4.80;2.40;;;14.40;82.30;;;;;;4935138;29;20567;-51
2021/08/09 03:08:11;;;;;;;5.30;2.10;;;14.40;82.30;;;;;;4934668;29;20509;-51
2021/08/09 03:10:38;;;;;;;2.60;2.10;;;14.40;82.40;;;;;;4918156;29;20504;-51
2021/08/09 03:13:08;;;;;;;2.97;2.30;;;14.40;82.60;;;;;;4932073;29;20464;-51
2021/08/09 03:15:36;;;;;;;2.50;2.13;;;14.40;82.60;;;;;;4933248;29;20965;-50
2021/08/09 03:18:02;;;;;;;2.60;2.40;;;14.40;82.60;;;;;;4934126;29;20474;-51
2021/08/09 03:20:30;;;;;;;3.10;2.20;;;14.40;82.50;;;;;;4931751;29;20663;-51
2021/08/09 03:22:57;;;;;;;3.30;3.00;;;14.40;82.60;;;;;;4930195;29;20464;-51
2021/08/09 03:25:24;;;;;;;3.43;3.10;;;14.40;82.70;;;;;;4933820;29;20879;-50
2021/08/09 03:27:51;;;;;;;3.60;2.50;;;14.40;82.70;;;;;;4914802;29;20491;-51
2021/08/09 03:30:18;;;;;;;3.23;2.40;;;14.40;82.70;;;;;;4931816;29;20544;-51
2021/08/09 03:32:47;;;;;;;3.20;2.70;;;14.40;82.70;;;;;;4935466;29;20492;-51
2021/08/09 03:35:14;;;;;;;2.40;2.20;;;14.40;82.60;;;;;;4932407;29;20801;-50
2021/08/09 03:37:41;;;;;;;2.60;2.40;;;14.40;82.70;;;;;;4932566;29;20504;-50
2021/08/09 03:40:08;;;;;;;5.57;3.20;;;14.40;82.70;;;;;;4933222;29;20495;-50
2021/08/09 03:42:36;;;;;;;2.63;2.40;;;14.40;82.70;;;;;;4931295;29;20559;-51
2021/08/09 03:45:04;;;;;;;3.30;2.63;;;14.40;82.90;;;;;;4933315;29;20558;-51
2021/08/09 03:47:31;;;;;;;3.03;2.40;;;14.40;83.00;;;;;;4934506;29;20452;-51
2021/08/09 03:49:57;;;;;;;5.77;2.17;;;14.40;83.20;;;;;;4928991;29;20487;-51
2021/08/09 03:52:24;;;;;;;2.60;2.27;;;14.40;83.30;;;;;;4918261;29;20456;-51
2021/08/09 03:54:51;;;;;;;2.70;2.50;;;14.50;83.40;;;;;;4921478;29;20843;-51
2021/08/09 03:57:17;;;;;;;6.10;2.90;;;14.50;83.40;;;;;;4934507;29;20607;-51
2021/08/09 03:59:44;;;;;;;3.57;2.57;;;14.50;83.50;;;;;;4934185;29;20845;-50
2021/08/09 04:02:15;;;;;;;5.30;2.60;;;14.50;83.40;;;;;;4932457;29;20552;-51
2021/08/09 04:04:42;;;;;;;2.60;2.40;;;14.50;83.30;;;;;;4932756;29;20470;-51
2021/08/09 04:07:09;;;;;;;4.20;2.57;;;14.50;83.50;;;;;;4929642;29;20451;-51
2021/08/09 04:09:36;;;;;;;4.10;2.33;;;14.50;83.60;;;;;;4932135;29;20839;-51
2021/08/09 04:12:03;;;;;;;5.00;3.03;;;14.50;83.70;;;;;;4933419;29;21054;-51
2021/08/09 04:14:30;;;;;;;3.43;2.20;;;14.50;83.70;;;;;;4931430;29;20973;-51
2021/08/09 04:16:56;;;;;;;4.03;2.60;;;14.50;83.70;;;;;;4930754;29;20472;-51
2021/08/09 04:19:23;;;;;;;4.40;2.57;;;14.50;83.70;;;;;;4931590;29;20488;-51
2021/08/09 04:21:50;;;;;;;3.40;2.67;;;14.50;83.80;;;;;;4915190;29;20466;-51
2021/08/09 04:24:17;;;;;;;2.60;2.40;;;14.50;83.90;;;;;;4933415;29;20833;-51
2021/08/09 04:26:43;;;;;;;2.47;2.17;;;14.50;83.70;;;;;;4920241;29;20460;-51
2021/08/09 04:29:10;;;;;;;4.07;2.53;;;14.50;83.70;;;;;;4931025;29;20493;-51
2021/08/09 04:31:43;;;;;;;3.03;2.70;;;14.50;83.70;;;;;;4932275;29;20490;-51
2021/08/09 04:34:10;;;;;;;3.07;2.40;;;14.60;83.80;;;;;;4929243;29;20483;-51
2021/08/09 04:36:37;;;;;;;3.10;2.80;;;14.60;83.80;;;;;;4930024;29;20471;-51
2021/08/09 04:39:04;;;;;;;3.93;3.10;;;14.60;83.80;;;;;;4930897;29;20546;-51
2021/08/09 04:41:31;;;;;;;2.57;2.37;;;14.60;83.80;;;;;;4901440;29;20818;-51
2021/08/09 04:43:58;;;;;;;4.03;2.27;;;14.50;83.90;;;;;;4932448;29;20457;-51
2021/08/09 04:46:25;;;;;;;4.27;3.00;;;14.50;84.00;;;;;;4932310;29;20470;-51
2021/08/09 04:48:52;;;;;;;4.40;2.93;;;14.50;84.10;;;;;;4918869;29;20487;-51
2021/08/09 04:51:19;;;;;;;3.10;2.80;;;14.50;84.00;;;;;;4930702;29;20812;-51
2021/08/09 04:53:46;;;;;;;3.40;2.47;;;14.50;84.00;;;;;;4930542;29;20468;-51
2021/08/09 04:56:12;;;;;;;6.03;2.57;;;14.60;84.10;;;;;;4928968;29;20459;-51
2021/08/09 04:58:39;;;;;;;3.40;3.10;;;14.60;84.10;;;;;;4915651;29;20471;-51
2021/08/09 05:01:07;;;;;;;6.10;3.00;;;14.60;84.10;;;;;;4926596;29;20932;-51
2021/08/09 05:03:41;;;;;;;3.47;2.40;;;14.60;84.10;;;;;;4916959;29;20475;-51
2021/08/09 05:06:09;;;;;;;2.80;2.60;;;14.60;84.20;;;;;;4931055;29;20460;-51
2021/08/09 05:08:36;;;;;;;3.47;2.53;;;14.60;84.40;;;;;;4927815;29;20584;-51
2021/08/09 05:11:03;;;;;;;4.57;2.40;;;14.70;84.20;;;;;;4929544;29;20484;-51
2021/08/09 05:13:47;;;;;;;3.30;2.87;;;14.80;83.90;;;;;;4929687;29;20460;-51
2021/08/09 05:16:13;;;;;;;5.30;3.00;;;14.80;83.70;;;;;;4913399;29;20470;-51
2021/08/09 05:18:40;;;;;;;2.90;2.70;;;14.90;83.60;;;;;;4931785;29;20464;-51
2021/08/09 05:21:07;;;;;;;3.30;2.67;;;14.90;83.40;;;;;;4930822;29;20555;-51
2021/08/09 05:23:34;;;;;;;3.63;3.33;;;15.00;83.30;;;;;;4932124;29;20468;-51
2021/08/09 05:26:01;;;;;;;3.63;2.40;;;15.00;83.30;;;;;;4933518;29;20825;-51
2021/08/09 05:28:30;;;;;;;5.93;2.80;;;15.00;83.20;;;;;;4914384;29;20519;-51
2021/08/09 05:30:57;;;;;;;3.00;2.30;;;15.00;83.30;;;;;;4923367;29;20543;-51
2021/08/09 05:33:24;;;;;;;4.10;2.50;;;15.10;83.30;;;;;;4932008;29;20484;-51
2021/08/09 05:35:50;;;;;;;5.43;3.20;;;15.10;83.20;;;;;;4916859;29;20992;-51
2021/08/09 05:38:17;;;;;;;3.70;2.83;;;15.20;83.20;;;;;;4932542;29;20444;-51
2021/08/09 05:40:44;;;;;;;4.80;2.90;;;15.20;83.20;;;;;;4932521;29;20547;-51
2021/08/09 05:43:11;;;;;;;5.27;2.70;;;15.20;83.20;;;;;;4931057;29;20542;-51
2021/08/09 05:45:38;;;;;;;3.57;2.70;;;15.20;83.30;;;;;;4928684;29;20464;-51
2021/08/09 05:48:05;;;;;;;3.70;2.70;;;15.30;83.40;;;;;;4923611;29;20474;-51
2021/08/09 05:50:32;;;;;;;3.03;2.40;;;15.30;83.50;;;;;;4927162;29;20494;-51
2021/08/09 05:52:58;;;;;;;3.03;2.47;;;15.40;83.30;;;;;;4915985;29;20495;-51
2021/08/09 05:55:26;;;;;;;4.20;3.00;;;15.50;82.80;;;;;;4931228;29;20470;-51
2021/08/09 05:57:53;;;;;;;5.77;3.60;;;15.60;82.80;;;;;;4929671;29;20506;-51
2021/08/09 06:00:24;;;;;;;5.20;2.90;;;15.60;82.90;;;;;;4913438;29;20495;-51
2021/08/09 06:02:51;;;;;;;3.30;2.57;;;15.70;82.70;;;;;;4910074;29;20552;-51
2021/08/09 06:05:19;;;;;;;3.20;2.90;;;15.80;82.60;;;;;;4934555;29;20617;-51
2021/08/09 06:07:46;;;;;;;6.40;2.90;;;15.90;82.40;;;;;;4929614;29;20484;-51
2021/08/09 06:10:12;;;;;;;5.57;3.20;;;16.00;82.20;;;;;;4909247;29;20547;-51
2021/08/09 06:12:39;;;;;;;2.90;2.37;;;16.10;82.10;;;;;;4930362;29;20475;-51
2021/08/09 06:15:07;;;;;;;2.97;2.60;;;16.20;81.90;;;;;;4913393;29;20471;-51
2021/08/09 06:17:34;;;;;;;4.97;3.17;;;16.20;81.80;;;;;;4912517;29;20464;-51
2021/08/09 06:20:03;;;;;;;7.07;3.00;;;16.40;81.30;;;;;;4915496;29;20909;-51
2021/08/09 06:22:29;;;;;;;6.97;3.50;;;16.50;80.90;;;;;;4927067;29;21025;-51
2021/08/09 06:24:56;;;;;;;11.03;2.73;;;16.50;80.70;;;;;;4928508;29;20546;-51
2021/08/09 06:27:23;;;;;;;3.23;2.30;;;16.60;80.60;;;;;;4926954;29;20491;-51
2021/08/09 06:29:50;;;;;;;4.90;2.43;;;16.70;80.50;;;;;;4930060;29;21058;-51
2021/08/09 06:32:17;;;;;;;3.07;2.60;;;16.80;80.40;;;;;;4931194;29;20463;-51
2021/08/09 06:34:44;;;;;;;3.70;2.13;;;16.80;79.90;;;;;;4930080;29;20456;-51
2021/08/09 06:37:11;;;;;;;2.20;1.50;;;16.80;79.70;;;;;;4930338;29;20480;-51
2021/08/09 06:39:38;;;;;;;3.27;2.10;;;16.90;79.30;;;;;;4928949;29;20567;-51
2021/08/09 06:42:05;;;;;;;2.43;1.67;;;16.90;78.90;;;;;;4915115;29;20475;-51
2021/08/09 06:44:32;;;;;;;2.00;1.80;;;16.90;78.90;;;;;;4929835;29;20466;-51
2021/08/09 06:47:00;;;;;;;3.70;2.00;;;16.90;78.90;;;;;;4929212;29;20471;-51
2021/08/09 06:49:27;;;;;;;2.60;2.40;;;17.00;79.00;;;;;;4928376;29;21124;-51
2021/08/09 06:51:54;;;;;;;3.63;2.13;;;17.10;78.90;;;;;;4925826;29;20994;-51
2021/08/09 06:54:23;;;;;;;4.33;2.47;;;17.30;78.60;;;;;;4923497;29;20460;-51
2021/08/09 06:56:52;;;;;;;3.57;2.50;;;17.40;78.10;;;;;;4927804;29;20467;-51
2021/08/09 06:59:19;;;;;;;3.07;2.00;;;17.50;77.90;;;;;;4912430;29;20547;-51
2021/08/09 07:01:46;;;;;;;3.57;1.70;;;17.60;77.10;;;;;;4932556;29;20488;-51
2021/08/09 07:04:13;;;;;;;3.70;1.73;;;17.60;76.60;;;;;;4927975;29;20693;-51
2021/08/09 07:06:39;;;;;;;3.37;1.93;;;17.60;76.50;;;;;;4912668;29;20546;-51
2021/08/09 07:09:06;;;;;;;2.10;1.80;;;17.70;76.50;;;;;;4920555;29;20850;-51
2021/08/09 07:11:33;;;;;;;3.50;1.97;;;17.70;76.60;;;;;;4928416;29;20855;-50
2021/08/09 07:14:01;;;;;;;2.20;2.00;;;17.70;76.20;;;;;;4930580;29;20968;-50
2021/08/09 07:16:27;;;;;;;3.93;1.93;;;17.70;76.40;;;;;;4930585;29;20448;-50
2021/08/09 07:18:54;;;;;;;2.03;1.63;;;17.80;76.50;;;;;;4928742;29;20483;-50
2021/08/09 07:21:21;;;;;;;1.80;1.57;;;17.90;76.50;;;;;;4929939;29;20820;-50
2021/08/09 07:23:48;;;;;;;9.93;2.60;;;18.00;76.30;;;;;;4928723;29;20494;-50
2021/08/09 07:26:14;;;;;;;5.87;2.17;;;18.10;76.10;;;;;;4914715;29;20449;-50
2021/08/09 07:28:41;;;;;;;1.70;1.60;;;18.30;75.60;;;;;;4929073;29;20464;-51
2021/08/09 07:31:08;;;;;;;4.10;1.90;;;18.50;75.30;;;;;;4914999;29;20492;-51
2021/08/09 07:33:35;;;;;;;5.47;1.57;;;18.60;74.80;;;;;;4924732;29;20452;-51
2021/08/09 07:36:04;;;;;;;3.53;2.20;;;18.80;74.70;;;;;;4928388;29;20450;-51
2021/08/09 07:38:32;;;;;;;1.90;1.73;;;19.00;74.10;;;;;;4926143;29;20467;-51
2021/08/09 07:41:03;;;;;;;2.50;1.93;;;19.10;73.60;;;;;;4929570;29;21028;-51
2021/08/09 07:43:31;;;;;;;4.27;1.90;;;19.30;72.70;;;;;;4931744;29;20494;-51
2021/08/09 07:45:57;;;;;;;2.40;1.40;;;19.40;72.20;;;;;;4917842;29;20471;-50
2021/08/09 07:48:24;;;;;;;2.97;2.03;;;19.50;72.20;;;;;;4935200;29;20456;-50
2021/08/09 07:50:51;;;;;;;3.60;1.60;;;19.60;72.00;;;;;;4933911;29;20570;-51
2021/08/09 07:53:18;;;;;;;4.00;1.43;;;19.80;72.00;;;;;;4915336;29;20914;-51
2021/08/09 07:55:45;;;;;;;2.87;1.97;;;20.00;71.40;;;;;;4929684;29;20479;-50
2021/08/09 07:58:14;;;;;;;2.07;1.50;;;20.10;71.20;;;;;;4933500;29;20787;-50
2021/08/09 08:00:41;;;;;;;2.30;1.70;;;20.30;70.80;;;;;;4934268;29;20519;-51
2021/08/09 08:03:08;;;;;;;2.60;1.80;;;20.40;69.80;;;;;;4933083;29;20468;-51
2021/08/09 08:05:35;;;;;;;2.10;1.40;;;20.50;68.80;;;;;;4932450;29;20510;-51
2021/08/09 08:08:02;;;;;;;3.83;1.50;;;20.60;68.70;;;;;;4929325;29;20527;-51
2021/08/09 08:10:29;;;;;;;3.03;1.70;;;20.60;68.70;;;;;;4931224;29;20574;-51
2021/08/09 08:12:55;;;;;;;1.90;1.77;;;20.70;68.40;;;;;;4935794;29;20448;-51
2021/08/09 08:15:22;;;;;;;2.33;1.83;;;20.80;68.10;;;;;;4911095;29;20989;-51
2021/08/09 08:17:49;;;;;;;3.53;1.73;;;20.90;67.90;;;;;;4916738;29;20452;-51
2021/08/09 08:20:17;;;;;;;2.60;1.23;;;21.00;67.40;;;;;;4931168;29;20649;-51
2021/08/09 08:22:44;;;;;;;1.70;1.30;;;21.00;66.50;;;;;;4928106;29;20468;-51
2021/08/09 08:25:11;;;;;;;2.50;1.27;;;21.10;67.10;;;;;;4931740;29;20542;-51
2021/08/09 08:27:38;;;;;;;2.40;1.33;;;21.20;67.40;;;;;;4932992;29;20456;-51
2021/08/09 08:30:06;;;;;;;2.83;1.80;;;21.30;67.40;;;;;;4928742;29;20492;-52
2021/08/09 08:32:53;;;;;;;1.40;1.30;;;21.30;66.60;;;;;;4934050;29;20447;-51
2021/08/09 08:35:20;;;;;;;2.20;1.80;;;21.40;66.50;;;;;;4935242;29;20480;-52
2021/08/09 08:37:47;;;;;;;3.20;1.70;;;21.50;66.60;;;;;;4921090;29;21001;-52
2021/08/09 08:40:15;;;;;;;1.20;1.10;;;21.60;66.50;;;;;;4932682;29;20470;-51
2021/08/09 08:42:45;;;;;;;2.50;1.40;;;21.80;65.40;;;;;;4932709;29;20455;-51
2021/08/09 08:45:17;;;;;;;4.70;1.70;;;22.00;65.00;;;;;;4933237;29;20865;-51
2021/08/09 08:47:47;;;;;;;5.83;1.50;;;22.20;64.40;;;;;;4933752;29;20891;-51
2021/08/09 08:50:19;;;;;;;2.40;1.57;;;22.50;63.30;;;;;;4916501;29;20514;-51
2021/08/09 08:52:49;;;;;;;1.67;1.20;;;22.70;62.70;;;;;;4932797;29;20543;-51
2021/08/09 08:55:17;;;;;;;3.27;1.70;;;23.00;62.20;;;;;;4930296;29;20558;-51
2021/08/09 08:57:46;;;;;;;2.00;1.27;;;23.30;61.70;;;;;;4928150;29;20548;-51
2021/08/09 09:00:14;;;;;;;1.70;1.50;;;23.50;60.30;;;;;;4932368;29;20498;-51
2021/08/09 09:02:41;;;;;;;7.60;1.33;;;23.60;60.00;;;;;;4917172;29;20451;-51
2021/08/09 09:05:12;;;;;;;4.60;2.37;;;23.70;59.90;;;;;;4933297;29;20454;-50
2021/08/09 09:07:43;;;;;;;2.23;1.70;;;23.80;59.90;;;;;;4929679;29;20484;-50
2021/08/09 09:10:16;;;;;;;1.27;1.00;;;23.80;60.10;;;;;;4926942;29;20506;-51
2021/08/09 09:12:43;;;;;;;5.90;1.30;;;23.90;60.00;;;;;;4931992;29;20545;-51
2021/08/09 09:15:10;;;;;;;2.50;1.70;;;24.00;59.30;;;;;;4929514;29;20470;-51
2021/08/09 09:17:39;;;;;;;2.60;1.20;;;24.20;59.00;;;;;;4914725;29;20807;-51
2021/08/09 09:20:27;;;;;;;4.60;1.63;;;24.40;57.60;;;;;;4927568;29;20475;-51
2021/08/09 09:23:12;;;;;;;2.23;1.20;;;24.50;57.00;;;;;;4912457;29;20474;-51
2021/08/09 09:25:40;;;;;;;4.93;1.50;;;24.50;56.90;;;;;;4928285;29;20468;-51
2021/08/09 09:28:25;;;;;;;2.20;1.53;;;24.70;56.60;;;;;;4932730;29;20473;-51
2021/08/09 09:30:54;;;;;;;2.07;1.67;;;25.10;55.60;;;;;;4926766;29;21012;-51
2021/08/09 09:33:21;;;;;;;2.03;1.20;;;25.40;53.90;;;;;;4930602;29;20884;-52
2021/08/09 09:35:51;;;;;;;1.80;1.03;;;25.60;54.00;;;;;;4928348;29;20987;-51
2021/08/09 09:38:18;;;;;;;1.43;1.33;;;25.70;54.10;;;;;;4930746;29;20547;-52
2021/08/09 09:40:45;;;;;;;3.43;1.77;;;25.90;52.70;;;;;;4930986;29;20462;-51
2021/08/09 09:43:17;;;;;;;2.13;1.10;;;26.00;52.80;;;;;;4931538;29;20459;-51
2021/08/09 09:45:55;;;;;;;4.73;1.63;;;26.20;53.00;;;;;;4930374;29;21758;-51
2021/08/09 09:48:36;;;;;;;3.03;1.50;;;26.40;53.50;;;;;;4927613;29;20458;-51
2021/08/09 09:51:10;;;;;;;1.97;1.30;;;26.40;53.10;;;;;;4929906;29;20501;-51
2021/08/09 09:53:36;;;;;;;3.07;1.37;;;26.30;53.40;;;;;;4931524;29;20537;-51
2021/08/09 09:56:04;;;;;;;1.60;1.47;;;26.10;53.10;;;;;;4913224;29;20825;-50
2021/08/09 09:58:32;;;;;;;2.07;1.50;;;26.00;52.80;;;;;;4931435;29;20474;-51
2021/08/09 10:01:04;;;;;;;1.63;1.30;;;26.00;52.50;;;;;;4927847;29;20493;-51
2021/08/09 10:03:32;;;;;;;1.40;1.30;;;26.30;52.80;;;;;;4932802;29;20534;-51
2021/08/09 10:06:04;;;;;;;1.70;1.60;;;26.50;52.70;;;;;;4911192;29;20988;-51
2021/08/09 10:08:40;;;;;;;2.07;1.63;;;26.30;52.30;;;;;;4933787;29;20463;-51
2021/08/09 10:11:09;;;;;;;3.47;1.73;;;26.40;52.40;;;;;;4914415;29;20505;-50
2021/08/09 10:13:37;;;;;;;2.07;1.27;;;26.30;52.70;;;;;;4931770;29;20455;-51
2021/08/09 10:16:07;;;;;;;3.53;1.50;;;26.10;53.40;;;;;;4926007;29;20490;-51
2021/08/09 10:18:52;;;;;;;3.33;1.50;;;25.90;53.20;;;;;;4931167;29;20467;-51
2021/08/09 10:21:19;;;;;;;2.20;1.17;;;26.00;53.50;;;;;;4927744;29;20459;-51
2021/08/09 10:23:49;;;;;;;3.53;1.17;;;26.30;52.50;;;;;;4918376;29;21233;-50
2021/08/09 10:26:30;;;;;;;0.90;0.87;;;26.30;51.20;;;;;;4931068;29;20937;-50
2021/08/09 10:29:07;;;;;;;2.87;1.07;;;26.20;48.30;;;;;;4929334;29;20534;-51
2021/08/09 10:31:39;;;;;;;2.20;1.20;;;26.00;48.10;;;;;;4928594;29;20487;-50
2021/08/09 10:34:32;;;;;;;2.10;1.43;;;25.70;49.60;;;;;;4932041;29;20475;-50
2021/08/09 10:37:12;;;;;;;3.37;1.33;;;25.30;51.40;;;;;;4930109;29;20808;-51
2021/08/09 10:40:02;;;;;;;3.00;1.60;;;25.00;51.00;;;;;;4928367;29;21023;-50
2021/08/09 10:42:40;;;;;;;4.47;1.33;;;24.80;50.50;;;;;;4931141;29;20462;-50
2021/08/09 10:45:14;;;;;;;3.80;1.37;;;24.50;51.70;;;;;;4930372;29;20635;-51
2021/08/09 10:47:53;;;;;;;4.97;2.00;;;24.30;51.60;;;;;;4926811;29;20974;-51
2021/08/09 10:50:22;;;;;;;3.00;1.40;;;24.20;52.10;;;;;;4926033;29;20505;-51
2021/08/09 10:52:50;;;;;;;2.67;1.30;;;24.10;52.60;;;;;;4930373;29;20474;-51
2021/08/09 10:55:32;;;;;;;4.20;1.60;;;24.00;53.60;;;;;;4931508;29;20439;-51
2021/08/09 10:58:01;;;;;;;2.37;1.27;;;23.90;53.90;;;;;;4930907;29;20487;-51
2021/08/09 11:00:40;;;;;;;4.47;1.67;;;24.00;51.40;;;;;;4931070;29;20487;-51
2021/08/09 11:03:12;;;;;;;5.40;1.30;;;24.00;52.00;;;;;;4933951;29;20470;-51
2021/08/09 11:05:39;;;;;;;2.40;1.27;;;24.00;52.50;;;;;;4932360;29;20546;-51
2021/08/09 11:08:15;;;;;;;2.90;1.30;;;24.00;55.80;;;;;;4928473;29;20471;-51
2021/08/09 11:10:51;;;;;;;2.37;1.27;;;24.00;55.90;;;;;;4928605;29;20518;-51
2021/08/09 11:13:18;;;;;;;1.10;1.00;;;23.90;56.40;;;;;;4927718;29;20463;-51
2021/08/09 11:15:55;;;;;;;2.27;1.50;;;23.90;57.60;;;;;;4924300;29;20878;-51
2021/08/09 11:18:22;;;;;;;2.50;1.37;;;23.90;58.10;;;;;;4933035;29;20474;-51
2021/08/09 11:21:07;;;;;;;2.30;1.40;;;23.80;58.80;;;;;;4934812;29;20553;-51
2021/08/09 11:23:39;;;;;;;3.43;2.00;;;23.70;57.90;;;;;;4935431;29;20485;-51
2021/08/09 11:26:17;;;;;;;1.97;1.10;;;23.70;55.60;;;;;;4903823;29;20467;-51
2021/08/09 11:28:55;;;;;;;2.30;1.00;;;23.70;54.20;;;;;;4934277;29;20454;-51
2021/08/09 11:31:22;;;;;;;2.60;1.30;;;23.60;54.90;;;;;;4932585;29;20486;-51
2021/08/09 11:33:48;;;;;;;7.00;1.30;;;23.60;55.30;;;;;;4933835;29;20467;-52
2021/08/09 11:36:16;;;;;;;2.60;1.50;;;23.60;55.40;;;;;;4920462;29;20463;-51
2021/08/09 11:38:48;;;;;;;2.43;1.00;;;23.70;55.00;;;;;;4935098;29;20943;-51
2021/08/09 11:41:17;;;;;;;2.60;1.50;;;23.80;54.90;;;;;;4918709;29;20463;-51
2021/08/09 11:43:45;;;;;;;1.27;1.17;;;23.70;54.90;;;;;;4936570;29;20463;-51
2021/08/09 11:46:18;;;;;;;4.07;1.40;;;23.90;54.50;;;;;;4932790;29;20470;-51
2021/08/09 11:48:47;;;;;;;2.27;1.20;;;23.90;54.70;;;;;;4919891;29;21020;-51
2021/08/09 11:51:23;;;;;;;3.13;1.60;;;23.90;55.30;;;;;;4934190;29;20992;-51
2021/08/09 11:53:51;;;;;;;1.50;0.97;;;24.00;54.30;;;;;;4932622;29;20458;-51
2021/08/09 11:56:34;;;;;;;2.00;1.27;;;24.00;53.50;;;;;;4932145;29;20801;-51
2021/08/09 11:59:15;;;;;;;3.27;1.43;;;24.00;53.10;;;;;;4932916;29;20932;-51
2021/08/09 12:01:47;;;;;;;2.70;1.23;;;24.00;52.90;;;;;;4930065;29;20841;-51
2021/08/09 12:04:20;;;;;;;1.67;1.40;;;24.00;53.00;;;;;;4913386;29;20502;-51
2021/08/09 12:06:59;;;;;;;3.97;1.33;;;24.00;53.20;;;;;;4930273;29;20475;-51
2021/08/09 12:09:42;;;;;;;4.67;1.77;;;23.90;53.70;;;;;;4933168;29;20474;-51
2021/08/09 12:12:11;;;;;;;1.87;1.10;;;23.90;54.20;;;;;;4932415;29;20583;-51
2021/08/09 12:14:38;;;;;;;2.60;1.67;;;23.90;54.20;;;;;;4933400;29;20462;-51
2021/08/09 12:17:17;;;;;;;1.37;1.20;;;24.00;54.60;;;;;;4934476;29;20502;-51
2021/08/09 12:19:51;;;;;;;2.10;1.30;;;24.00;54.30;;;;;;4928547;29;20933;-51
2021/08/09 12:22:30;;;;;;;3.33;1.30;;;24.00;52.30;;;;;;4916033;29;20557;-51
2021/08/09 12:25:11;;;;;;;2.10;1.50;;;24.00;53.20;;;;;;4932890;29;20470;-51
2021/08/09 12:27:38;;;;;;;2.60;1.33;;;24.00;50.50;;;;;;4930115;29;20473;-51
2021/08/09 12:30:10;;;;;;;2.20;1.20;;;24.00;50.00;;;;;;4931586;29;21020;-51
2021/08/09 12:32:40;;;;;;;4.03;1.40;;;23.90;51.00;;;;;;4929351;29;20455;-51
2021/08/09 12:35:08;;;;;;;2.60;1.87;;;23.90;51.60;;;;;;4932510;29;20455;-51
2021/08/09 12:37:37;;;;;;;3.10;1.23;;;23.80;49.70;;;;;;4929625;29;20460;-51
2021/08/09 12:40:14;;;;;;;3.43;1.43;;;23.70;50.20;;;;;;4933755;29;20439;-51
2021/08/09 12:42:43;;;;;;;3.20;1.40;;;23.60;50.90;;;;;;4931629;29;20463;-51
2021/08/09 12:45:10;;;;;;;1.73;1.10;;;23.50;51.40;;;;;;4916523;29;20447;-51
2021/08/09 12:47:38;;;;;;;2.97;1.10;;;23.50;51.00;;;;;;4930906;29;20865;-51
2021/08/09 12:50:08;;;;;;;2.90;1.50;;;23.40;51.40;;;;;;4933028;29;20475;-51
2021/08/09 12:52:35;;;;;;;4.53;1.30;;;23.40;51.50;;;;;;4932628;29;20487;-52
2021/08/09 12:55:02;;;;;;;4.80;1.23;;;23.40;51.60;;;;;;4933494;29;20805;-52
2021/08/09 12:57:28;;;;;;;1.73;1.40;;;23.40;52.20;;;;;;4934089;29;20955;-52
2021/08/09 12:59:55;;;;;;;2.57;1.30;;;23.40;52.60;;;;;;4934378;29;20558;-52